MSC Florentina — HPFH — position and weather

sailwx.info

Track history (hours):
 
Tides and Currents Weather Stations Pressure Air Temp Water Temp Dewpoint Dewpoint Depression Visibility Wind Speed Wind Dir Waves Ship Positions

MSC Florentina

Last reported at 2015-Mar-25 04:13 UTC. Time now 2015-Mar-27 01:57 UTC.
Position N 38°38' E 013°33'.

Length 300 m; draft 12.6 m.

Type: Ship. MMSI: 352870000.

Date/timePositionNaut miles runAvg speedWind from/ knotsBaromVisibWave heightAir tempDewpointWater temp
2015-Mar-25 04:13N 38°38' E 013°33'1319.4
2015-Mar-25 03:33N 38°37' E 013°17'1919.2
2015-Mar-25 02:33N 38°35' E 012°53'16418.1
2015-Mar-24 17:31N 38°39' E 009°23'1717.9
2015-Mar-24 16:33N 38°40' E 009°01'1818.3
2015-Mar-24 15:32N 38°40' E 008°37'3618.2
2015-Mar-24 13:32N 38°55' E 007°55'23518.1
2015-Mar-24 00:33N 40°46' E 003°25'1818.6
2015-Mar-23 23:33N 40°55' E 003°04'1918.8
2015-Mar-23 22:33N 41°04' E 002°42'1818.0
2015-Mar-23 21:33N 41°12' E 002°20'11 0.8
2015-Mar-23 08:26N 41°19' E 002°10'5 5.5
2015-Mar-23 07:33N 41°15' E 002°14'8 8.2
2015-Mar-23 06:33N 41°14' E 002°24'5 3.8
2015-Mar-23 05:16N 41°18' E 002°28'3 1.8
2015-Mar-23 03:32N 41°17' E 002°24'10 2.4
2015-Mar-22 23:25N 41°13' E 002°11'3 3.0
2015-Mar-22 22:31N 41°13' E 002°08'3 2.6
2015-Mar-22 21:33N 41°13' E 002°11'2 2.4
2015-Mar-22 20:31N 41°13' E 002°14'1 1.0
2015-Mar-22 19:32N 41°13' E 002°16'4 3.7
2015-Mar-22 18:30N 41°12' E 002°11'0 0.1
2015-Mar-22 17:33N 41°12' E 002°11'2713.2
2015-Mar-22 15:33N 40°49' E 001°53'1615.8
2015-Mar-22 14:33N 40°35' E 001°43'1615.9
2015-Mar-22 13:33N 40°21' E 001°34'1616.3
2015-Mar-22 12:33N 40°06' E 001°24'1615.7
2015-Mar-22 11:33N 39°52' E 001°15'1816.1
2015-Mar-22 10:28N 39°37' E 001°04'3215.8
2015-Mar-22 08:28N 39°08' E 000°45'7515.2
2015-Mar-22 03:34N 38°05' W 000°04'1615.6
2015-Mar-22 02:33N 37°52' W 000°15'1515.2
2015-Mar-22 01:33N 37°39' W 000°26'1614.9
2015-Mar-22 00:30N 37°27' W 000°39'1515.3
2015-Mar-21 23:33N 37°18' W 000°53'1616.0
2015-Mar-21 22:33N 37°08' W 001°09'20618.6
2015-Mar-21 11:29N 36°04' W 005°13'1112.0
2015-Mar-21 10:33N 36°09' W 005°26'1 0.5
2015-Mar-21 09:33N 36°09' W 005°26'0 0.0
2015-Mar-21 08:33N 36°09' W 005°26'0 0.0
2015-Mar-21 07:33N 36°09' W 005°26'0 0.0
2015-Mar-21 06:32N 36°09' W 005°26'0 0.0
2015-Mar-21 04:32N 36°09' W 005°26'0 0.0
2015-Mar-21 02:11N 36°09' W 005°26'0 0.0
2015-Mar-21 01:29N 36°09' W 005°26'0 0.0
2015-Mar-21 00:23N 36°09' W 005°26'0 0.0
2015-Mar-20 23:32N 36°09' W 005°26'0 0.0
2015-Mar-20 22:29N 36°09' W 005°26'0 0.0
2015-Mar-20 21:32N 36°09' W 005°26'0 0.0
2015-Mar-20 20:29N 36°09' W 005°26'1 0.6
2015-Mar-20 18:34N 36°09' W 005°25'4 4.4
2015-Mar-20 17:33N 36°05' W 005°22'2 1.7
2015-Mar-20 16:33N 36°03' W 005°21'7 7.5
2015-Mar-20 15:33N 35°58' W 005°28'1812.6
2015-Mar-20 14:09N 35°55' W 005°49'188 5.0
2015-Mar-19 00:34N 37°26' W 009°14'1716.9
2015-Mar-18 23:33N 37°40' W 009°02'1716.8
2015-Mar-18 22:33N 37°54' W 008°51'2 1.6
2015-Mar-18 21:33N 37°56' W 008°51'0 0.0
2015-Mar-18 20:33N 37°56' W 008°51'0 0.0
2015-Mar-18 19:33N 37°56' W 008°51'0 0.0
2015-Mar-18 18:33N 37°56' W 008°51'0 0.0
2015-Mar-18 17:33N 37°56' W 008°51'0 0.0
2015-Mar-18 16:30N 37°56' W 008°51'0 0.0
2015-Mar-18 15:33N 37°56' W 008°51'0 0.0
2015-Mar-18 14:33N 37°56' W 008°51'0 0.0
2015-Mar-18 13:33N 37°56' W 008°51'0 0.0
2015-Mar-18 12:33N 37°56' W 008°51'0 0.0
2015-Mar-18 11:33N 37°56' W 008°51'0 0.0
2015-Mar-18 10:33N 37°56' W 008°51'0 0.0
2015-Mar-18 09:33N 37°56' W 008°51'3 2.6
2015-Mar-18 08:33N 37°53' W 008°51'2 2.2
2015-Mar-18 07:33N 37°53' W 008°53'1616.4
2015-Mar-18 06:33N 37°54' W 009°14'1716.7
2015-Mar-18 05:33N 37°54' W 009°35'1716.5
2015-Mar-18 04:31N 37°54' W 009°57'64516.1
2015-Mar-16 12:30N 37°59' W 023°35'1616.7
2015-Mar-16 11:33N 37°59' W 023°55'1616.4
2015-Mar-16 10:33N 37°60' W 024°16'1616.4
2015-Mar-16 09:33N 38°00' W 024°37'1616.3
2015-Mar-16 08:34N 38°01' W 024°57'1818.3
2015-Mar-16 07:34N 38°01' W 025°21'2019.7
2015-Mar-16 06:33N 38°01' W 025°46'1919.2
2015-Mar-16 05:33N 38°00' W 026°10'1919.4
2015-Mar-16 04:34N 37°60' W 026°35'2019.5
2015-Mar-16 03:33N 37°59' W 026°60'1919.3
2015-Mar-16 02:33N 37°59' W 027°24'1919.3
2015-Mar-16 01:33N 37°57' W 027°48'2019.5
2015-Mar-16 00:33N 37°55' W 028°13'1919.2
2015-Mar-15 23:33N 37°54' W 028°37'1919.1
2015-Mar-15 22:33N 37°52' W 029°01'1919.2
2015-Mar-15 21:33N 37°50' W 029°26'1919.2
2015-Mar-15 20:33N 37°46' W 029°49'  
Track history (hours):
 
Tides and Currents Weather Stations Pressure Air Temp Water Temp Dewpoint Dewpoint Depression Visibility Wind Speed Wind Dir Waves Ship Positions

MSC Florentina

Last reported at 2015-Mar-25 04:13 UTC. Time now 2015-Mar-27 01:57 UTC.
Position N 38°38' E 013°33'.

Length 300 m; draft 12.6 m.

Type: Ship. MMSI: 352870000.

Date/timePositionNaut miles runAvg speedWind from/ knotsBaromVisibWave heightAir tempDewpointWater temp
2015-Mar-25 04:13N 38°38' E 013°33'1319.4
2015-Mar-25 03:33N 38°37' E 013°17'1919.2
2015-Mar-25 02:33N 38°35' E 012°53'16418.1
2015-Mar-24 17:31N 38°39' E 009°23'1717.9
2015-Mar-24 16:33N 38°40' E 009°01'1818.3
2015-Mar-24 15:32N 38°40' E 008°37'3618.2
2015-Mar-24 13:32N 38°55' E 007°55'23518.1
2015-Mar-24 00:33N 40°46' E 003°25'1818.6
2015-Mar-23 23:33N 40°55' E 003°04'1918.8
2015-Mar-23 22:33N 41°04' E 002°42'1818.0
2015-Mar-23 21:33N 41°12' E 002°20'11 0.8
2015-Mar-23 08:26N 41°19' E 002°10'5 5.5
2015-Mar-23 07:33N 41°15' E 002°14'8 8.2
2015-Mar-23 06:33N 41°14' E 002°24'5 3.8
2015-Mar-23 05:16N 41°18' E 002°28'3 1.8
2015-Mar-23 03:32N 41°17' E 002°24'10 2.4
2015-Mar-22 23:25N 41°13' E 002°11'3 3.0
2015-Mar-22 22:31N 41°13' E 002°08'3 2.6
2015-Mar-22 21:33N 41°13' E 002°11'2 2.4
2015-Mar-22 20:31N 41°13' E 002°14'1 1.0
2015-Mar-22 19:32N 41°13' E 002°16'4 3.7
2015-Mar-22 18:30N 41°12' E 002°11'0 0.1
2015-Mar-22 17:33N 41°12' E 002°11'2713.2
2015-Mar-22 15:33N 40°49' E 001°53'1615.8
2015-Mar-22 14:33N 40°35' E 001°43'1615.9
2015-Mar-22 13:33N 40°21' E 001°34'1616.3
2015-Mar-22 12:33N 40°06' E 001°24'1615.7
2015-Mar-22 11:33N 39°52' E 001°15'1816.1
2015-Mar-22 10:28N 39°37' E 001°04'3215.8
2015-Mar-22 08:28N 39°08' E 000°45'7515.2
2015-Mar-22 03:34N 38°05' W 000°04'1615.6
2015-Mar-22 02:33N 37°52' W 000°15'1515.2
2015-Mar-22 01:33N 37°39' W 000°26'1614.9
2015-Mar-22 00:30N 37°27' W 000°39'1515.3
2015-Mar-21 23:33N 37°18' W 000°53'1616.0
2015-Mar-21 22:33N 37°08' W 001°09'20618.6
2015-Mar-21 11:29N 36°04' W 005°13'1112.0
2015-Mar-21 10:33N 36°09' W 005°26'1 0.5
2015-Mar-21 09:33N 36°09' W 005°26'0 0.0
2015-Mar-21 08:33N 36°09' W 005°26'0 0.0
2015-Mar-21 07:33N 36°09' W 005°26'0 0.0
2015-Mar-21 06:32N 36°09' W 005°26'0 0.0
2015-Mar-21 04:32N 36°09' W 005°26'0 0.0
2015-Mar-21 02:11N 36°09' W 005°26'0 0.0
2015-Mar-21 01:29N 36°09' W 005°26'0 0.0
2015-Mar-21 00:23N 36°09' W 005°26'0 0.0
2015-Mar-20 23:32N 36°09' W 005°26'0 0.0
2015-Mar-20 22:29N 36°09' W 005°26'0 0.0
2015-Mar-20 21:32N 36°09' W 005°26'0 0.0
2015-Mar-20 20:29N 36°09' W 005°26'1 0.6
2015-Mar-20 18:34N 36°09' W 005°25'4 4.4
2015-Mar-20 17:33N 36°05' W 005°22'2 1.7
2015-Mar-20 16:33N 36°03' W 005°21'7 7.5
2015-Mar-20 15:33N 35°58' W 005°28'1812.6
2015-Mar-20 14:09N 35°55' W 005°49'188 5.0
2015-Mar-19 00:34N 37°26' W 009°14'1716.9
2015-Mar-18 23:33N 37°40' W 009°02'1716.8
2015-Mar-18 22:33N 37°54' W 008°51'2 1.6
2015-Mar-18 21:33N 37°56' W 008°51'0 0.0
2015-Mar-18 20:33N 37°56' W 008°51'0 0.0
2015-Mar-18 19:33N 37°56' W 008°51'0 0.0
2015-Mar-18 18:33N 37°56' W 008°51'0 0.0
2015-Mar-18 17:33N 37°56' W 008°51'0 0.0
2015-Mar-18 16:30N 37°56' W 008°51'0 0.0
2015-Mar-18 15:33N 37°56' W 008°51'0 0.0
2015-Mar-18 14:33N 37°56' W 008°51'0 0.0
2015-Mar-18 13:33N 37°56' W 008°51'0 0.0
2015-Mar-18 12:33N 37°56' W 008°51'0 0.0
2015-Mar-18 11:33N 37°56' W 008°51'0 0.0
2015-Mar-18 10:33N 37°56' W 008°51'0 0.0
2015-Mar-18 09:33N 37°56' W 008°51'3 2.6
2015-Mar-18 08:33N 37°53' W 008°51'2 2.2
2015-Mar-18 07:33N 37°53' W 008°53'1616.4
2015-Mar-18 06:33N 37°54' W 009°14'1716.7
2015-Mar-18 05:33N 37°54' W 009°35'1716.5
2015-Mar-18 04:31N 37°54' W 009°57'64516.1
2015-Mar-16 12:30N 37°59' W 023°35'1616.7
2015-Mar-16 11:33N 37°59' W 023°55'1616.4
2015-Mar-16 10:33N 37°60' W 024°16'1616.4
2015-Mar-16 09:33N 38°00' W 024°37'1616.3
2015-Mar-16 08:34N 38°01' W 024°57'1818.3
2015-Mar-16 07:34N 38°01' W 025°21'2019.7
2015-Mar-16 06:33N 38°01' W 025°46'1919.2
2015-Mar-16 05:33N 38°00' W 026°10'1919.4
2015-Mar-16 04:34N 37°60' W 026°35'2019.5
2015-Mar-16 03:33N 37°59' W 026°60'1919.3
2015-Mar-16 02:33N 37°59' W 027°24'1919.3
2015-Mar-16 01:33N 37°57' W 027°48'2019.5
2015-Mar-16 00:33N 37°55' W 028°13'1919.2
2015-Mar-15 23:33N 37°54' W 028°37'1919.1
2015-Mar-15 22:33N 37°52' W 029°01'1919.2
2015-Mar-15 21:33N 37°50' W 029°26'1919.2
2015-Mar-15 20:33N 37°46' W 029°49'  

Dump ship's entire track history